createdAt,value
2022-08-18T00:01:14.605Z,8.35
2022-08-18T00:03:56.707Z,7.63
2022-08-18T00:06:28.619Z,8.55
2022-08-18T00:08:57.233Z,8.68
2022-08-18T00:11:24.378Z,9.18
2022-08-18T00:13:51.106Z,7.63
2022-08-18T00:16:17.821Z,8.32
2022-08-18T00:18:44.503Z,9.23
2022-08-18T00:21:11.343Z,10.38
2022-08-18T00:23:38.710Z,13.35
2022-08-18T00:26:05.685Z,15.95
2022-08-18T00:28:32.424Z,17.08
2022-08-18T00:30:59.139Z,18.00
2022-08-18T00:33:25.812Z,15.77
2022-08-18T00:35:52.572Z,17.60
2022-08-18T00:38:23.648Z,17.33
2022-08-18T00:40:53.817Z,13.50
2022-08-18T00:43:39.765Z,12.02
2022-08-18T00:46:09.156Z,12.60
2022-08-18T00:48:36.090Z,11.07
2022-08-18T00:51:10.625Z,11.15
2022-08-18T00:53:50.210Z,12.13
2022-08-18T00:56:22.279Z,14.25
2022-08-18T00:58:57.081Z,11.55
2022-08-18T01:01:26.353Z,13.63
2022-08-18T01:04:00.670Z,10.45
2022-08-18T01:06:34.620Z,11.48
2022-08-18T01:09:02.362Z,18.73
2022-08-18T01:11:29.598Z,13.48
2022-08-18T01:13:57.596Z,14.98
2022-08-18T01:16:57.662Z,15.02
2022-08-18T01:19:45.241Z,10.23
2022-08-18T01:22:43.379Z,12.15
2022-08-18T01:25:29.145Z,14.45
2022-08-18T01:27:57.010Z,13.80
2022-08-18T01:30:27.924Z,12.38
2022-08-18T01:32:54.677Z,15.27
2022-08-18T01:35:25.559Z,12.57
2022-08-18T01:37:53.466Z,12.30
2022-08-18T01:41:23.804Z,13.10
2022-08-18T01:43:10.345Z,14.13
2022-08-18T01:45:37.190Z,13.32
2022-08-18T01:48:04.833Z,12.82
2022-08-18T01:50:34.663Z,13.73
2022-08-18T01:53:04.356Z,12.88
2022-08-18T01:55:33.181Z,13.07
2022-08-18T01:58:01.375Z,12.75
2022-08-18T02:00:29.062Z,13.10
2022-08-18T02:03:02.151Z,11.43
2022-08-18T02:05:34.503Z,13.02
2022-08-18T02:08:01.221Z,11.27
2022-08-18T02:10:27.915Z,12.00
2022-08-18T02:12:54.839Z,11.30
2022-08-18T02:15:21.575Z,10.75
2022-08-18T02:17:48.293Z,10.90
2022-08-18T02:20:17.831Z,12.77
2022-08-18T02:22:45.363Z,10.52
2022-08-18T02:25:14.018Z,11.25
2022-08-18T02:27:41.006Z,10.63
2022-08-18T02:30:10.917Z,11.35
2022-08-18T02:32:38.067Z,11.98
2022-08-18T02:35:11.502Z,11.98
2022-08-18T02:37:42.061Z,11.73
2022-08-18T02:40:15.010Z,11.98
2022-08-18T02:42:43.700Z,9.88
2022-08-18T02:45:11.246Z,8.40
2022-08-18T02:47:38.204Z,11.13
2022-08-18T02:50:05.778Z,9.52
2022-08-18T02:52:32.828Z,8.77
2022-08-18T02:55:03.344Z,10.77
2022-08-18T02:57:31.191Z,10.70
2022-08-18T02:59:57.905Z,10.40
2022-08-18T03:02:26.982Z,10.93
2022-08-18T03:04:53.725Z,11.38
2022-08-18T03:07:20.532Z,12.52
2022-08-18T03:09:47.178Z,12.50
2022-08-18T03:12:13.868Z,12.18
2022-08-18T03:14:40.610Z,14.70
2022-08-18T03:17:09.026Z,14.05
2022-08-18T03:19:36.519Z,14.73
2022-08-18T03:22:05.829Z,15.55
2022-08-18T03:24:52.618Z,15.52
2022-08-18T03:27:19.271Z,16.63
2022-08-18T03:29:45.944Z,17.65
2022-08-18T03:32:12.655Z,19.02
2022-08-18T03:34:39.395Z,18.98
2022-08-18T03:37:06.178Z,19.30
2022-08-18T03:39:32.872Z,19.42
2022-08-18T03:42:01.421Z,20.38
2022-08-18T03:44:36.577Z,21.02
2022-08-18T03:47:07.511Z,21.58
2022-08-18T03:49:35.409Z,23.10
2022-08-18T03:52:02.505Z,23.08
2022-08-18T03:54:32.043Z,23.52
2022-08-18T03:57:00.145Z,23.73
2022-08-18T03:59:28.191Z,24.48
2022-08-18T04:01:55.345Z,25.20
2022-08-18T04:04:26.204Z,24.98
2022-08-18T04:07:04.569Z,26.65
2022-08-18T04:09:33.583Z,24.30
2022-08-18T04:12:05.990Z,26.33
2022-08-18T04:14:33.763Z,24.55
2022-08-18T04:17:00.825Z,28.38
2022-08-18T04:19:28.191Z,27.38
2022-08-18T04:21:57.433Z,27.70
2022-08-18T04:24:25.932Z,28.25
2022-08-18T04:26:53.279Z,29.85
2022-08-18T04:29:21.319Z,29.25
2022-08-18T04:31:49.074Z,28.98
2022-08-18T04:34:16.699Z,29.20
2022-08-18T04:36:43.942Z,30.98
2022-08-18T04:39:12.877Z,31.05
2022-08-18T04:41:43.360Z,30.83
2022-08-18T04:44:11.652Z,30.75
2022-08-18T04:46:41.465Z,30.95
2022-08-18T04:49:10.512Z,29.58
2022-08-18T04:52:39.393Z,30.52
2022-08-18T04:54:26.958Z,31.45
2022-08-18T04:56:55.027Z,31.50
2022-08-18T04:59:21.691Z,31.73
2022-08-18T05:01:48.524Z,31.17
2022-08-18T05:04:17.430Z,32.33
2022-08-18T05:06:45.331Z,31.60
2022-08-18T05:09:16.910Z,31.08
2022-08-18T05:11:50.809Z,29.50
2022-08-18T05:14:18.241Z,29.90
2022-08-18T05:16:47.949Z,30.10
2022-08-18T05:19:19.461Z,29.58
2022-08-18T05:21:47.104Z,29.02
2022-08-18T05:24:18.084Z,28.42
2022-08-18T05:26:45.412Z,28.40
2022-08-18T05:29:18.458Z,28.80
2022-08-18T05:31:48.018Z,28.48
2022-08-18T05:34:15.527Z,27.00
2022-08-18T05:36:43.564Z,27.40
2022-08-18T05:39:23.737Z,30.15
2022-08-18T05:42:11.115Z,27.63
2022-08-18T05:44:45.776Z,29.08
2022-08-18T05:47:17.337Z,29.20
2022-08-18T05:49:48.061Z,29.80
2022-08-18T05:52:38.122Z,27.38
2022-08-18T05:55:31.876Z,25.08
2022-08-18T05:58:05.336Z,25.95
2022-08-18T06:00:33.204Z,26.50
2022-08-18T06:03:45.249Z,26.08
2022-08-18T06:06:25.515Z,24.67
2022-08-18T06:09:14.136Z,24.10
2022-08-18T06:11:41.007Z,22.35
2022-08-18T06:14:07.821Z,24.15
2022-08-18T06:17:07.247Z,22.08
2022-08-18T06:20:10.114Z,20.08
2022-08-18T06:22:55.229Z,18.85
2022-08-18T06:25:50.649Z,18.27
2022-08-18T06:28:17.601Z,19.02
2022-08-18T06:30:47.400Z,18.42
2022-08-18T06:33:39.599Z,17.17
2022-08-18T06:36:32.508Z,17.33
2022-08-18T06:39:23.714Z,16.25
2022-08-18T06:41:51.325Z,16.60
2022-08-18T06:44:46.789Z,16.88
2022-08-18T06:47:34.637Z,16.90
2022-08-18T06:50:08.208Z,16.13
2022-08-18T06:52:39.142Z,15.63
2022-08-18T06:55:17.458Z,16.55
2022-08-18T06:57:59.890Z,15.45
2022-08-18T07:00:34.703Z,14.48
2022-08-18T07:03:22.738Z,13.93
2022-08-18T07:06:18.466Z,14.88
2022-08-18T07:08:45.884Z,14.15
2022-08-18T07:11:29.537Z,16.73
2022-08-18T07:14:16.438Z,15.20
2022-08-18T07:17:00.084Z,14.98
2022-08-18T07:19:30.538Z,15.68
2022-08-18T07:22:18.863Z,15.88
2022-08-18T07:24:52.859Z,15.35
2022-08-18T07:27:41.476Z,14.77
2022-08-18T07:30:36.568Z,14.65
2022-08-18T07:33:24.076Z,15.82
2022-08-18T07:36:00.362Z,15.35
2022-08-18T07:41:26.090Z,14.95
2022-08-18T07:44:13.996Z,15.20
2022-08-18T07:46:59.547Z,15.55
2022-08-18T07:49:31.308Z,15.02
2022-08-18T07:52:23.215Z,15.18
2022-08-18T07:55:14.936Z,13.98
2022-08-18T07:58:01.283Z,13.90
2022-08-18T08:00:58.730Z,14.30
2022-08-18T08:03:51.057Z,13.90
2022-08-18T08:07:06.087Z,13.15
2022-08-18T08:09:52.097Z,12.52
2022-08-18T08:12:25.334Z,12.60
2022-08-18T08:15:17.629Z,12.52
2022-08-18T08:17:47.353Z,11.15
2022-08-18T08:20:33.572Z,11.18
2022-08-18T08:23:44.942Z,10.38
2022-08-18T08:26:43.570Z,11.82
2022-08-18T08:29:40.914Z,11.82
2022-08-18T08:35:47.058Z,12.13
2022-08-18T08:38:29.474Z,12.85
2022-08-18T08:41:05.271Z,11.98
2022-08-18T08:43:40.361Z,12.45
2022-08-18T08:46:15.524Z,11.48
2022-08-18T08:48:55.999Z,10.73
2022-08-18T08:51:56.774Z,10.90
2022-08-18T08:54:42.375Z,9.27
2022-08-18T08:57:11.422Z,8.90
2022-08-18T08:59:40.607Z,8.27
2022-08-18T09:02:22.667Z,8.35
2022-08-18T09:05:15.773Z,8.00
2022-08-18T09:08:12.663Z,8.02
2022-08-18T09:10:50.487Z,7.85
2022-08-18T09:13:38.596Z,7.80
2022-08-18T09:16:12.292Z,8.73
2022-08-18T09:19:30.547Z,8.40
2022-08-18T09:22:03.764Z,7.97
2022-08-18T09:24:45.751Z,8.55
2022-08-18T09:27:48.628Z,7.68
2022-08-18T09:30:45.256Z,8.18
2022-08-18T09:33:32.312Z,9.82
2022-08-18T09:36:36.076Z,9.30
2022-08-18T09:39:37.940Z,7.78
2022-08-18T09:42:33.653Z,9.40
2022-08-18T09:45:33.534Z,8.57
2022-08-18T09:48:12.482Z,8.20
2022-08-18T09:53:55.127Z,9.15
2022-08-18T09:56:53.842Z,8.02
2022-08-18T09:59:34.765Z,8.52
2022-08-18T10:05:20.197Z,8.70
2022-08-18T10:07:53.242Z,8.50
2022-08-18T10:11:02.445Z,10.50
2022-08-18T10:13:49.573Z,9.38
2022-08-18T10:16:38.225Z,9.27
2022-08-18T10:19:40.380Z,11.10
2022-08-18T10:22:10.567Z,11.82
2022-08-18T10:24:54.896Z,10.63
2022-08-18T10:27:45.822Z,12.73
2022-08-18T10:30:36.207Z,11.35
2022-08-18T10:33:17.189Z,11.35
2022-08-18T10:36:31.601Z,11.68
2022-08-18T10:38:58.374Z,14.00
2022-08-18T10:41:41.481Z,13.02
2022-08-18T10:44:28.363Z,12.20
2022-08-18T10:46:58.714Z,13.25
2022-08-18T10:49:28.696Z,14.00
2022-08-18T10:52:24.337Z,14.18
2022-08-18T10:55:24.134Z,14.15
2022-08-18T10:58:40.556Z,13.18
2022-08-18T11:01:25.693Z,14.77
2022-08-18T11:04:14.164Z,14.32
2022-08-18T11:06:47.430Z,15.38
2022-08-18T11:09:26.891Z,13.68
2022-08-18T11:11:59.272Z,13.85
2022-08-18T11:15:22.015Z,13.30
2022-08-18T11:18:24.174Z,14.15
2022-08-18T11:20:52.003Z,12.90
2022-08-18T11:23:18.704Z,14.82
2022-08-18T11:25:48.258Z,13.95
2022-08-18T11:28:21.919Z,12.77
2022-08-18T11:30:58.150Z,11.80
2022-08-18T11:33:25.126Z,10.93
2022-08-18T11:35:59.265Z,12.63
2022-08-18T11:38:31.110Z,13.57
2022-08-18T11:41:20.620Z,12.15
2022-08-18T11:43:50.562Z,12.63
2022-08-18T11:46:28.054Z,12.43
2022-08-18T11:49:00.365Z,13.32
2022-08-18T11:51:32.114Z,11.57
2022-08-18T11:54:13.158Z,11.15
2022-08-18T11:56:40.072Z,11.52
2022-08-18T11:59:54.935Z,12.63
2022-08-18T12:02:25.344Z,10.20
2022-08-18T12:04:57.817Z,10.90
2022-08-18T12:07:32.020Z,9.52
2022-08-18T12:10:26.439Z,10.73
2022-08-18T12:12:59.626Z,11.90
2022-08-18T12:15:44.897Z,11.57
2022-08-18T12:18:26.181Z,11.25
2022-08-18T12:20:58.564Z,10.30
2022-08-18T12:23:26.045Z,13.32
2022-08-18T12:25:52.775Z,11.00
2022-08-18T12:28:22.831Z,11.32
2022-08-18T12:30:56.050Z,10.68
2022-08-18T12:33:48.349Z,10.75
2022-08-18T12:36:29.758Z,10.82
2022-08-18T12:38:57.154Z,10.32
2022-08-18T12:41:24.377Z,10.25
2022-08-18T12:46:42.856Z,9.18
2022-08-18T12:49:24.927Z,8.32
2022-08-18T12:51:55.626Z,7.85
2022-08-18T12:54:22.767Z,7.55
2022-08-18T12:56:55.066Z,8.35
2022-08-18T13:02:11.533Z,7.00
2022-08-18T13:04:39.566Z,7.10
2022-08-18T13:07:08.010Z,7.47
2022-08-18T13:09:53.995Z,6.85
2022-08-18T13:12:22.481Z,6.82
2022-08-18T13:14:51.497Z,6.35
2022-08-18T13:17:32.495Z,6.53
2022-08-18T13:20:11.061Z,6.35
2022-08-18T13:22:40.886Z,6.65
2022-08-18T13:25:11.426Z,6.80
2022-08-18T13:27:39.084Z,7.13
2022-08-18T13:30:29.920Z,6.80
2022-08-18T13:33:02.617Z,6.18
2022-08-18T13:35:35.221Z,6.50
2022-08-18T13:38:14.225Z,6.65
2022-08-18T13:40:48.505Z,6.38
2022-08-18T13:43:17.912Z,6.20
2022-08-18T13:45:48.013Z,6.32
2022-08-18T13:48:19.906Z,6.72
2022-08-18T13:50:47.233Z,6.80
2022-08-18T13:53:20.175Z,6.68
2022-08-18T13:55:47.886Z,5.85
2022-08-18T13:58:20.515Z,6.93
2022-08-18T14:00:52.315Z,6.38
2022-08-18T14:03:42.749Z,6.53
2022-08-18T14:06:13.088Z,7.22
2022-08-18T14:08:40.555Z,6.90
2022-08-18T14:11:08.385Z,6.50
2022-08-18T14:13:38.235Z,7.20
2022-08-18T14:16:18.691Z,6.70
2022-08-18T14:19:09.961Z,6.60
2022-08-18T14:22:01.190Z,6.18
2022-08-18T14:24:48.963Z,5.68
2022-08-18T14:27:17.189Z,5.63
2022-08-18T14:29:47.780Z,5.72
2022-08-18T14:32:28.481Z,6.10
2022-08-18T14:34:59.808Z,5.80
2022-08-18T14:37:27.800Z,5.28
2022-08-18T14:39:54.679Z,5.28
2022-08-18T14:42:41.194Z,5.18
2022-08-18T14:45:27.494Z,5.10
2022-08-18T14:47:58.706Z,5.47
2022-08-18T14:50:26.736Z,6.13
2022-08-18T14:52:53.636Z,5.95
2022-08-18T14:55:20.522Z,6.07
2022-08-18T14:57:47.276Z,6.25
2022-08-18T15:00:17.115Z,6.13
2022-08-18T15:02:49.205Z,6.03
2022-08-18T15:05:19.606Z,6.22
2022-08-18T15:07:50.813Z,6.10
2022-08-18T15:10:20.002Z,6.22
2022-08-18T15:12:50.978Z,6.65
2022-08-18T15:15:18.509Z,8.15
2022-08-18T15:17:50.262Z,7.53
2022-08-18T15:20:24.024Z,8.77
2022-08-18T15:25:46.290Z,8.35
2022-08-18T15:28:23.712Z,8.90
2022-08-18T15:31:16.595Z,9.27
2022-08-18T15:33:39.521Z,9.05
2022-08-18T15:36:09.891Z,8.57
2022-08-18T15:38:37.448Z,8.55
2022-08-18T15:41:06.291Z,8.52
2022-08-18T15:43:45.992Z,8.57
2022-08-18T15:46:13.963Z,8.20
2022-08-18T15:48:43.958Z,8.80
2022-08-18T15:51:12.035Z,7.57
2022-08-18T15:53:44.631Z,7.85
2022-08-18T15:56:21.399Z,8.45
2022-08-18T15:58:49.497Z,8.18
2022-08-18T16:01:29.833Z,8.18
2022-08-18T16:03:57.420Z,8.15
2022-08-18T16:06:27.810Z,8.20
2022-08-18T16:09:00.232Z,7.80
2022-08-18T16:11:29.170Z,7.97
2022-08-18T16:13:58.899Z,7.95
2022-08-18T16:16:33.290Z,8.05
2022-08-18T16:19:04.765Z,8.38
2022-08-18T16:21:31.487Z,7.97
2022-08-18T16:23:58.329Z,8.20
2022-08-18T16:26:25.016Z,8.13
2022-08-18T16:28:52.701Z,8.57
2022-08-18T16:31:25.010Z,8.35
2022-08-18T16:33:53.877Z,8.25
2022-08-18T16:36:21.364Z,8.13
2022-08-18T16:38:48.326Z,7.85
2022-08-18T16:41:20.728Z,7.80
2022-08-18T16:43:47.998Z,7.80
2022-08-18T16:46:24.518Z,8.02
2022-08-18T16:48:51.501Z,7.50
2022-08-18T16:51:21.830Z,7.40
2022-08-18T16:53:52.424Z,7.82
2022-08-18T16:56:22.830Z,8.07
2022-08-18T16:59:08.629Z,7.95
2022-08-18T17:01:54.639Z,8.70
2022-08-18T17:04:25.872Z,9.50
2022-08-18T17:06:52.633Z,9.05
2022-08-18T17:09:20.066Z,9.52
2022-08-18T17:11:52.034Z,9.98
2022-08-18T17:14:21.268Z,9.48
2022-08-18T17:16:51.060Z,10.93
2022-08-18T17:19:17.742Z,10.05
2022-08-18T17:21:44.649Z,10.75
2022-08-18T17:24:11.662Z,11.20
2022-08-18T17:27:02.494Z,10.30
2022-08-18T17:29:45.899Z,10.70
2022-08-18T17:32:29.334Z,10.68
2022-08-18T17:35:04.479Z,10.55
2022-08-18T17:37:31.306Z,10.35
2022-08-18T17:40:05.109Z,9.40
2022-08-18T17:42:33.447Z,9.32
2022-08-18T17:45:04.989Z,8.43
2022-08-18T17:47:43.497Z,9.57
2022-08-18T17:51:07.251Z,8.82
2022-08-18T17:53:36.176Z,9.85
2022-08-18T17:56:23.087Z,9.38
2022-08-18T17:59:51.049Z,9.82
2022-08-18T18:02:28.368Z,10.32
2022-08-18T18:04:55.992Z,10.55
2022-08-18T18:07:27.303Z,10.43
2022-08-18T18:09:58.097Z,11.25
2022-08-18T18:12:28.503Z,12.48
2022-08-18T18:14:59.599Z,13.70
2022-08-18T18:17:39.186Z,12.98
2022-08-18T18:20:36.498Z,12.95
2022-08-18T18:23:25.152Z,12.55
2022-08-18T18:25:51.980Z,11.57
2022-08-18T18:28:28.253Z,10.90
2022-08-18T18:30:59.820Z,11.65
2022-08-18T18:33:29.991Z,10.70
2022-08-18T18:35:59.407Z,10.25
2022-08-18T18:38:33.208Z,9.00
2022-08-18T18:41:24.666Z,9.82
2022-08-18T18:44:06.213Z,10.52
2022-08-18T18:47:18.651Z,9.13
2022-08-18T18:50:03.984Z,9.55
2022-08-18T18:52:52.846Z,9.32
2022-08-18T18:55:24.342Z,8.77
2022-08-18T18:58:23.187Z,10.05
2022-08-18T19:00:59.999Z,10.05
2022-08-18T19:03:45.002Z,9.15
2022-08-18T19:06:26.844Z,10.50
2022-08-18T19:09:33.211Z,9.63
2022-08-18T19:12:20.497Z,9.05
2022-08-18T19:15:00.266Z,10.48
2022-08-18T19:17:33.302Z,10.45
2022-08-18T19:20:27.578Z,13.05
2022-08-18T19:23:04.632Z,14.13
2022-08-18T19:25:35.690Z,11.63
2022-08-18T19:28:16.464Z,10.88
2022-08-18T19:30:47.631Z,11.35
2022-08-18T19:33:25.776Z,11.27
2022-08-18T19:36:19.479Z,10.77
2022-08-18T19:39:02.121Z,11.85
2022-08-18T19:41:56.402Z,10.73
2022-08-18T19:44:29.705Z,9.68
2022-08-18T19:47:26.877Z,9.32
2022-08-18T19:50:12.609Z,9.85
2022-08-18T19:53:22.353Z,9.73
2022-08-18T19:56:25.153Z,12.07
2022-08-18T19:59:25.061Z,14.10
2022-08-18T20:02:20.846Z,14.88
2022-08-18T20:05:17.689Z,15.00
2022-08-18T20:08:25.693Z,16.45
2022-08-18T20:11:07.166Z,15.45
2022-08-18T20:13:42.903Z,15.32
2022-08-18T20:16:23.599Z,16.02
2022-08-18T20:18:56.304Z,13.60
2022-08-18T20:21:41.638Z,16.60
2022-08-18T20:24:38.290Z,15.77
2022-08-18T20:27:23.681Z,15.60
2022-08-18T20:30:08.780Z,15.25
2022-08-18T20:32:36.242Z,15.95
2022-08-18T20:35:29.875Z,16.35
2022-08-18T20:38:25.818Z,15.02
2022-08-18T20:40:54.066Z,15.90
2022-08-18T20:43:34.462Z,14.90
2022-08-18T20:46:21.758Z,14.85
2022-08-18T20:49:08.116Z,16.00
2022-08-18T20:51:52.165Z,17.10
2022-08-18T20:54:21.966Z,17.13
2022-08-18T20:56:55.566Z,17.20
2022-08-18T20:59:32.903Z,16.83
2022-08-18T21:02:08.137Z,17.00
2022-08-18T21:04:50.979Z,18.23
2022-08-18T21:07:36.163Z,18.75
2022-08-18T21:10:17.733Z,17.38
2022-08-18T21:12:53.676Z,15.85
2022-08-18T21:15:24.157Z,17.77
2022-08-18T21:18:02.226Z,16.92
2022-08-18T21:20:30.305Z,17.10
2022-08-18T21:23:10.571Z,17.90
2022-08-18T21:25:53.467Z,17.52
2022-08-18T21:28:21.642Z,16.85
2022-08-18T21:31:41.677Z,16.83
2022-08-18T21:34:00.343Z,17.77
2022-08-18T21:36:32.074Z,17.65
2022-08-18T21:39:06.198Z,18.15
2022-08-18T21:41:39.090Z,18.65
2022-08-18T21:44:21.585Z,20.88
2022-08-18T21:46:48.875Z,20.20
2022-08-18T21:49:27.315Z,20.95
2022-08-18T21:51:54.538Z,23.08
2022-08-18T21:54:24.668Z,22.20
2022-08-18T21:57:20.995Z,21.55
2022-08-18T22:00:20.324Z,23.33
2022-08-18T22:02:52.061Z,23.20
2022-08-18T22:05:58.331Z,22.48
2022-08-18T22:08:23.079Z,25.65
2022-08-18T22:12:00.384Z,26.00
2022-08-18T22:14:28.801Z,27.90
2022-08-18T22:17:48.321Z,28.50
2022-08-18T22:20:43.142Z,27.30
2022-08-18T22:23:34.351Z,27.40
2022-08-18T22:26:26.305Z,28.23
2022-08-18T22:29:33.883Z,30.15
2022-08-18T22:32:01.893Z,28.80
2022-08-18T22:34:31.891Z,30.25
2022-08-18T22:37:00.494Z,30.48
2022-08-18T22:39:31.761Z,31.13
2022-08-18T22:41:58.963Z,30.73
2022-08-18T22:44:26.713Z,30.48
2022-08-18T22:46:54.312Z,30.08
2022-08-18T22:49:22.429Z,29.75
2022-08-18T22:51:51.466Z,31.85
2022-08-18T22:54:19.455Z,33.03
2022-08-18T22:56:56.613Z,32.25
2022-08-18T22:59:26.824Z,32.88
2022-08-18T23:01:54.768Z,32.85
2022-08-18T23:04:23.135Z,31.70
2022-08-18T23:06:53.567Z,33.90
2022-08-18T23:09:23.257Z,33.03
2022-08-18T23:11:50.911Z,34.75
2022-08-18T23:14:17.727Z,35.15
2022-08-18T23:16:46.881Z,36.00
2022-08-18T23:19:15.249Z,38.70
2022-08-18T23:21:43.585Z,38.10
2022-08-18T23:24:12.564Z,37.70
2022-08-18T23:26:40.301Z,39.78
2022-08-18T23:29:11.424Z,36.88
2022-08-18T23:31:40.013Z,37.83
2022-08-18T23:34:08.457Z,34.70
2022-08-18T23:36:37.835Z,36.13
2022-08-18T23:39:06.700Z,36.00
2022-08-18T23:41:35.416Z,35.10
2022-08-18T23:44:02.260Z,32.67
2022-08-18T23:46:31.850Z,31.15
2022-08-18T23:49:00.558Z,29.13
2022-08-18T23:51:35.031Z,30.42
2022-08-18T23:54:07.561Z,29.58
2022-08-18T23:56:35.714Z,29.63
2022-08-18T23:59:04.709Z,29.17
